Time;durP1;ratioP1;P1;durP2;ratioP2;P2;SDS_P1;SDS_P2;PMS_P1;PMS_P2;Temp;Humidity;BMP_temperature;BMP_pressure;BME280_temperature;BME280_humidity;BME280_pressure;Samples;Min_cycle;Max_cycle;Signal;HPM_P1;HPM_P2
2023/10/20 00:00:58;;;;;;;9.45;4.80;;;;;;;12.58;100.00;91334.06;5095775;28;20039;-62
2023/10/20 00:03:25;;;;;;;8.43;5.40;;;;;;;12.57;100.00;91327.03;5098676;28;20043;-62
2023/10/20 00:05:53;;;;;;;10.33;5.20;;;;;;;12.52;100.00;91325.78;5093960;28;20540;-62
2023/10/20 00:08:20;;;;;;;36.90;20.55;;;;;;;12.54;100.00;91336.28;5091147;28;20052;-61
2023/10/20 00:10:47;;;;;;;12.98;7.63;;;;;;;12.57;100.00;91318.78;5076579;28;20048;-62
2023/10/20 00:13:16;;;;;;;9.63;5.95;;;;;;;12.53;100.00;91321.78;5099364;28;20040;-62
2023/10/20 00:15:45;;;;;;;8.10;5.40;;;;;;;12.53;100.00;91315.53;5094789;28;21741;-62
2023/10/20 00:18:13;;;;;;;13.77;9.10;;;;;;;12.58;100.00;91307.31;5093316;28;20054;-62
2023/10/20 00:20:40;;;;;;;10.52;5.60;;;;;;;12.26;100.00;91303.88;5095766;28;20069;-62
2023/10/20 00:23:06;;;;;;;9.30;5.63;;;;;;;12.21;100.00;91293.56;5094957;28;20492;-62
2023/10/20 00:25:33;;;;;;;9.43;5.22;;;;;;;12.36;100.00;91290.69;5096629;28;20050;-61
2023/10/20 00:28:00;;;;;;;9.95;5.57;;;;;;;12.33;100.00;91281.41;5096402;28;20043;-62
2023/10/20 00:30:27;;;;;;;10.07;5.50;;;;;;;12.35;100.00;91281.69;5097707;28;20058;-62
2023/10/20 00:32:53;;;;;;;9.10;5.10;;;;;;;12.40;100.00;91288.44;5094657;28;20050;-62
2023/10/20 00:35:20;;;;;;;8.13;5.20;;;;;;;12.44;100.00;91283.47;5097295;28;20051;-61
2023/10/20 00:37:47;;;;;;;10.02;5.75;;;;;;;12.46;100.00;91280.97;5095996;28;20032;-62
2023/10/20 00:40:14;;;;;;;8.55;5.13;;;;;;;12.46;100.00;91272.72;5091306;28;20052;-62
2023/10/20 00:42:41;;;;;;;7.90;4.80;;;;;;;12.46;100.00;91266.50;5096502;28;20077;-62
2023/10/20 00:45:09;;;;;;;10.45;5.05;;;;;;;12.42;100.00;91257.72;5095153;28;20058;-62
2023/10/20 00:47:38;;;;;;;9.00;5.70;;;;;;;12.29;100.00;91258.13;5077437;28;20476;-62
2023/10/20 00:50:11;;;;;;;31.58;17.15;;;;;;;12.26;100.00;91248.13;5095500;28;20048;-62
2023/10/20 00:52:57;;;;;;;15.57;9.10;;;;;;;12.22;100.00;91236.59;5093262;28;20080;-63
2023/10/20 00:55:24;;;;;;;21.63;11.57;;;;;;;12.21;100.00;91216.59;5095171;28;20048;-61
2023/10/20 00:57:53;;;;;;;16.63;9.52;;;;;;;12.16;100.00;91215.31;5096992;28;20046;-62
2023/10/20 01:00:20;;;;;;;11.82;6.80;;;;;;;12.10;100.00;91195.28;5098874;28;20047;-61
2023/10/20 01:02:47;;;;;;;10.23;5.60;;;;;;;12.12;100.00;91189.31;5077583;28;20054;-61
2023/10/20 01:05:22;;;;;;;8.88;5.20;;;;;;;12.15;100.00;91191.06;5097881;28;20046;-62
2023/10/20 01:07:49;;;;;;;9.50;5.17;;;;;;;12.10;100.00;91184.31;5084108;28;20604;-62
2023/10/20 01:10:16;;;;;;;9.77;5.88;;;;;;;11.82;100.00;91175.13;5089690;28;20036;-62
2023/10/20 01:12:43;;;;;;;8.65;5.43;;;;;;;11.87;100.00;91166.16;5087725;28;20658;-62
2023/10/20 01:15:15;;;;;;;9.57;6.07;;;;;;;11.96;100.00;91155.00;5089662;28;20058;-62
2023/10/20 01:17:41;;;;;;;8.82;5.28;;;;;;;11.99;100.00;91143.00;5086531;28;21076;-62
2023/10/20 01:20:09;;;;;;;8.40;5.20;;;;;;;12.06;100.00;91134.31;5071641;28;20526;-62
2023/10/20 01:22:36;;;;;;;9.75;5.40;;;;;;;12.13;100.00;91116.56;5088638;28;20048;-62
2023/10/20 01:25:03;;;;;;;8.93;5.68;;;;;;;12.14;100.00;91107.09;5089189;28;20043;-62
2023/10/20 01:27:29;;;;;;;10.15;5.55;;;;;;;12.13;100.00;91114.59;5086574;28;20446;-62
2023/10/20 01:29:57;;;;;;;9.02;5.35;;;;;;;12.01;100.00;91107.53;5088274;28;20051;-62
2023/10/20 01:32:23;;;;;;;8.43;5.27;;;;;;;11.98;100.00;91095.53;5081776;28;20090;-61
2023/10/20 01:34:50;;;;;;;8.45;5.80;;;;;;;11.75;100.00;91082.91;5075241;28;20036;-62
2023/10/20 01:37:17;;;;;;;10.20;5.28;;;;;;;11.91;100.00;91073.25;5070205;28;20088;-61
2023/10/20 01:39:44;;;;;;;8.27;5.53;;;;;;;11.98;100.00;91078.31;5076493;28;20041;-62
2023/10/20 01:42:11;;;;;;;10.10;5.63;;;;;;;11.99;100.00;91066.81;5062141;28;20052;-62
2023/10/20 01:44:38;;;;;;;8.47;4.93;;;;;;;11.96;100.00;91069.78;5077180;28;20075;-62
2023/10/20 01:47:06;;;;;;;7.45;4.75;;;;;;;11.97;100.00;91080.31;5056963;28;20041;-62
2023/10/20 01:49:32;;;;;;;10.32;4.90;;;;;;;12.12;100.00;91082.09;5077618;28;20041;-62
2023/10/20 01:51:59;;;;;;;8.05;5.28;;;;;;;11.87;100.00;91065.25;5079171;28;20406;-62
2023/10/20 01:54:26;;;;;;;9.63;5.53;;;;;;;11.82;100.00;91076.22;5077231;28;20055;-62
2023/10/20 01:56:53;;;;;;;8.90;5.33;;;;;;;11.93;100.00;91077.03;5059728;28;20549;-62
2023/10/20 01:59:20;;;;;;;9.00;5.00;;;;;;;11.89;100.00;91073.00;5074720;28;20408;-61
2023/10/20 02:01:48;;;;;;;8.13;5.10;;;;;;;11.83;100.00;91072.19;5073556;28;20048;-62
2023/10/20 02:04:14;;;;;;;12.07;6.60;;;;;;;11.77;100.00;91055.69;5076004;28;20044;-62
2023/10/20 02:06:42;;;;;;;11.70;6.13;;;;;;;11.85;100.00;91056.75;5087401;28;20040;-61
2023/10/20 02:09:09;;;;;;;10.67;5.70;;;;;;;11.90;100.00;91047.78;5080369;28;20097;-62
2023/10/20 02:11:36;;;;;;;9.07;5.57;;;;;;;11.93;100.00;91033.06;5077467;28;20056;-62
2023/10/20 02:14:03;;;;;;;9.23;5.45;;;;;;;11.97;100.00;91039.06;5079585;28;20062;-62
2023/10/20 02:16:31;;;;;;;8.18;5.20;;;;;;;11.86;100.00;91035.50;5061082;28;20047;-62
2023/10/20 02:18:59;;;;;;;14.40;7.60;;;;;;;11.95;100.00;91022.34;5074698;28;20044;-62
2023/10/20 02:21:25;;;;;;;10.87;5.87;;;;;;;11.89;100.00;91020.78;5078911;28;20044;-61
2023/10/20 02:23:52;;;;;;;9.82;5.75;;;;;;;11.80;100.00;91008.00;5075335;28;20420;-62
2023/10/20 02:26:19;;;;;;;9.48;6.03;;;;;;;11.75;100.00;90984.78;5079168;28;20048;-61
2023/10/20 02:28:47;;;;;;;9.90;6.20;;;;;;;11.68;100.00;90979.00;5062864;28;20036;-62
2023/10/20 02:31:17;;;;;;;12.05;6.82;;;;;;;11.63;100.00;90977.75;5084157;28;20109;-62
2023/10/20 02:33:45;;;;;;;10.83;6.43;;;;;;;11.72;100.00;90971.28;5087113;28;20072;-62
2023/10/20 02:36:19;;;;;;;11.95;7.50;;;;;;;11.74;100.00;90953.03;5088161;28;20040;-62
2023/10/20 02:38:47;;;;;;;9.18;5.38;;;;;;;11.76;100.00;90947.06;5086121;28;22487;-62
2023/10/20 02:41:14;;;;;;;9.15;4.63;;;;;;;11.69;100.00;90948.28;5087587;28;20036;-62
2023/10/20 02:43:41;;;;;;;9.73;4.82;;;;;;;11.80;100.00;90940.06;5087324;28;20048;-62
2023/10/20 02:46:09;;;;;;;7.30;4.20;;;;;;;11.74;100.00;90941.31;5087481;28;20040;-62
2023/10/20 02:48:37;;;;;;;7.82;4.95;;;;;;;11.89;100.00;90930.88;5084185;28;20070;-61
2023/10/20 02:51:10;;;;;;;7.05;4.55;;;;;;;11.96;100.00;90918.66;5087613;28;20045;-62
2023/10/20 02:53:40;;;;;;;6.05;3.92;;;;;;;11.98;100.00;90919.66;5082807;28;20101;-61
2023/10/20 02:56:15;;;;;;;7.25;4.10;;;;;;;12.02;100.00;90921.41;5087415;28;20051;-62
2023/10/20 02:58:45;;;;;;;6.83;4.23;;;;;;;12.02;100.00;90915.91;5084045;28;22164;-62
2023/10/20 03:01:13;;;;;;;8.70;4.90;;;;;;;11.96;100.00;90915.91;5086238;28;20036;-62
2023/10/20 03:03:40;;;;;;;7.80;5.13;;;;;;;11.88;100.00;90907.38;5086542;28;20048;-62
2023/10/20 03:06:08;;;;;;;7.72;5.30;;;;;;;11.81;100.00;90907.84;5087347;28;20051;-62
2023/10/20 03:08:37;;;;;;;7.60;5.40;;;;;;;11.84;100.00;90889.63;5084264;28;20052;-61
2023/10/20 03:11:06;;;;;;;8.20;5.23;;;;;;;11.80;100.00;90876.13;5087068;28;20044;-62
2023/10/20 03:13:33;;;;;;;8.40;4.70;;;;;;;11.64;100.00;90874.84;5086006;28;20040;-62
2023/10/20 03:15:59;;;;;;;7.03;4.72;;;;;;;11.68;100.00;90860.88;5086822;28;20079;-62
2023/10/20 03:18:26;;;;;;;7.63;4.70;;;;;;;11.58;100.00;90858.34;5085469;28;20058;-62
2023/10/20 03:20:53;;;;;;;7.63;4.50;;;;;;;11.55;100.00;90848.38;5087073;28;20044;-62
2023/10/20 03:23:20;;;;;;;8.13;4.73;;;;;;;11.63;100.00;90853.38;5086399;28;20052;-62
2023/10/20 03:25:47;;;;;;;14.75;9.20;;;;;;;11.63;100.00;90834.16;5086539;28;20046;-62
2023/10/20 03:28:14;;;;;;;7.35;4.40;;;;;;;11.74;100.00;90834.91;5084473;28;20044;-62
2023/10/20 03:30:42;;;;;;;6.20;3.60;;;;;;;11.94;100.00;90833.94;5086214;28;20044;-63
2023/10/20 03:33:11;;;;;;;6.75;4.07;;;;;;;12.05;100.00;90824.19;5084975;28;20037;-62
2023/10/20 03:35:38;;;;;;;7.07;4.60;;;;;;;11.98;100.00;90815.22;5085950;28;20040;-62
2023/10/20 03:38:06;;;;;;;8.70;4.47;;;;;;;12.05;100.00;90799.47;5086343;28;20048;-62
2023/10/20 03:40:46;;;;;;;5.93;3.60;;;;;;;12.10;100.00;90779.47;5086302;28;20396;-62
2023/10/20 03:43:12;;;;;;;4.72;2.80;;;;;;;12.22;100.00;90767.22;5083890;28;20040;-62
2023/10/20 03:45:41;;;;;;;5.82;3.25;;;;;;;12.38;100.00;90763.66;5086397;28;20064;-62
2023/10/20 03:48:09;;;;;;;4.43;2.90;;;;;;;12.47;100.00;90754.38;5082968;28;20055;-63
2023/10/20 03:50:38;;;;;;;9.10;4.30;;;;;;;11.92;100.00;90756.75;5086401;28;20050;-63
2023/10/20 03:53:06;;;;;;;5.38;3.78;;;;;;;11.96;100.00;90751.75;5082780;28;20051;-64
2023/10/20 03:55:33;;;;;;;7.43;4.60;;;;;;;12.01;100.00;90744.00;5085861;28;20052;-63
2023/10/20 03:58:01;;;;;;;9.65;5.30;;;;;;;11.90;100.00;90742.03;5083628;28;20060;-63
2023/10/20 04:00:28;;;;;;;8.00;5.00;;;;;;;11.80;100.00;90720.28;5086255;28;20048;-63
2023/10/20 04:02:58;;;;;;;11.02;6.82;;;;;;;11.56;100.00;90733.78;5085552;28;20044;-63
2023/10/20 04:05:25;;;;;;;8.43;5.15;;;;;;;11.79;100.00;90724.28;5085224;28;20056;-64
2023/10/20 04:07:53;;;;;;;7.00;4.53;;;;;;;11.77;100.00;90723.25;5084782;28;20046;-63
2023/10/20 04:10:20;;;;;;;6.45;4.00;;;;;;;11.82;100.00;90728.03;5085684;28;20108;-65
2023/10/20 04:12:47;;;;;;;5.57;3.20;;;;;;;11.98;100.00;90716.28;5085063;28;20047;-63
2023/10/20 04:15:15;;;;;;;8.05;4.80;;;;;;;12.06;100.00;90722.00;5086384;28;20055;-63
2023/10/20 04:17:51;;;;;;;9.10;3.97;;;;;;;11.95;100.00;90711.81;5085643;28;20122;-63
2023/10/20 04:20:19;;;;;;;5.80;3.70;;;;;;;12.17;100.00;90710.22;5086074;28;20622;-63
2023/10/20 04:22:50;;;;;;;27.20;14.18;;;;;;;12.27;100.00;90694.94;5083893;28;20046;-64
2023/10/20 04:25:18;;;;;;;5.23;2.90;;;;;;;12.43;100.00;90676.16;5084056;28;20048;-64
2023/10/20 04:27:57;;;;;;;5.03;2.25;;;;;;;12.86;100.00;90648.94;5081865;28;20809;-63
2023/10/20 05:08:30;;;;;;;5.38;2.50;;;;;;;13.60;100.00;90486.56;5078463;28;20040;-63
2023/10/20 05:10:50;;;;;;;3.80;2.42;;;;;;;13.65;100.00;90485.78;5077890;28;21653;-62
2023/10/20 05:13:17;;;;;;;4.93;2.65;;;;;;;13.66;100.00;90472.75;5073110;28;20052;-60
2023/10/20 05:15:45;;;;;;;5.50;2.70;;;;;;;13.53;100.00;90471.38;5085422;28;20036;-62
2023/10/20 05:18:12;;;;;;;4.57;2.40;;;;;;;13.61;100.00;90460.53;5075517;28;20040;-62
2023/10/20 05:20:42;;;;;;;4.88;2.78;;;;;;;13.50;100.00;90449.63;5084780;28;20409;-62
2023/10/20 05:23:10;;;;;;;7.18;2.80;;;;;;;13.58;100.00;90443.03;5059150;28;20032;-62
2023/10/20 05:25:45;;;;;;;4.38;2.70;;;;;;;13.68;100.00;90439.91;5076828;28;20444;-62
2023/10/20 05:28:11;;;;;;;5.07;2.90;;;;;;;13.56;100.00;90433.78;5077169;28;20041;-62
2023/10/20 05:30:42;;;;;;;5.10;2.90;;;;;;;13.48;100.00;90439.16;5068072;28;20044;-62
2023/10/20 05:33:09;;;;;;;4.40;2.83;;;;;;;13.51;100.00;90437.38;5066957;28;20047;-62
2023/10/20 05:35:36;;;;;;;4.65;3.05;;;;;;;13.37;100.00;90423.50;5066957;28;20049;-62
2023/10/20 05:38:07;;;;;;;4.30;2.90;;;;;;;13.27;100.00;90410.59;5067097;28;20044;-62
2023/10/20 05:40:35;;;;;;;5.47;3.10;;;;;;;13.29;100.00;90411.56;5068829;28;20572;-62
2023/10/20 05:43:05;;;;;;;6.23;3.80;;;;;;;13.27;100.00;90391.31;5067240;28;20146;-62
2023/10/20 05:45:39;;;;;;;5.97;3.20;;;;;;;13.09;100.00;90385.25;5068410;28;20144;-63
2023/10/20 05:48:07;;;;;;;4.85;3.17;;;;;;;13.13;100.00;90393.94;5067106;28;20055;-62
2023/10/20 05:50:38;;;;;;;6.25;2.90;;;;;;;13.23;100.00;90377.81;5068390;28;20056;-62
2023/10/20 05:53:06;;;;;;;6.15;3.30;;;;;;;13.23;100.00;90361.31;5067736;28;20049;-62
2023/10/20 05:55:33;;;;;;;6.07;3.33;;;;;;;13.15;100.00;90363.91;5069484;28;20061;-62
2023/10/20 05:58:00;;;;;;;6.90;3.30;;;;;;;13.13;100.00;90371.94;5081752;28;20051;-63
2023/10/20 06:00:27;;;;;;;5.47;3.38;;;;;;;13.11;100.00;90390.97;5061712;28;20048;-62
2023/10/20 06:02:55;;;;;;;6.95;3.95;;;;;;;13.04;100.00;90379.78;5077298;28;20029;-63
2023/10/20 06:05:22;;;;;;;6.75;4.50;;;;;;;12.97;100.00;90381.88;5077219;28;20052;-62
2023/10/20 06:07:49;;;;;;;8.30;3.90;;;;;;;12.99;100.00;90367.59;5076610;28;20044;-62
2023/10/20 06:10:22;;;;;;;6.20;3.97;;;;;;;12.92;100.00;90352.41;5089775;28;20051;-62
2023/10/20 06:12:53;;;;;;;7.20;4.85;;;;;;;12.83;100.00;90354.78;5068719;28;20795;-62
2023/10/20 06:15:21;;;;;;;10.25;7.03;;;;;;;12.71;100.00;90362.38;5072515;28;20052;-63
2023/10/20 06:17:51;;;;;;;8.15;6.15;;;;;;;12.78;100.00;90359.06;5089037;28;20554;-61
2023/10/20 06:20:19;;;;;;;8.90;4.60;;;;;;;12.75;100.00;90351.84;5072111;28;20044;-62
2023/10/20 06:22:46;;;;;;;7.43;4.95;;;;;;;12.72;100.00;90359.13;5089503;28;20043;-62
2023/10/20 06:25:12;;;;;;;7.38;4.80;;;;;;;12.76;100.00;90365.09;5088636;28;20054;-63
2023/10/20 06:27:43;;;;;;;9.20;5.63;;;;;;;12.73;100.00;90352.34;5088201;28;20048;-63
2023/10/20 06:30:21;;;;;;;8.05;5.32;;;;;;;12.62;100.00;90346.97;5089496;28;20135;-62
2023/10/20 06:35:35;;;;;;;10.95;5.43;;;;;;;12.64;100.00;90338.22;5078461;28;20040;-60
2023/10/20 06:40:34;;;;;;;9.07;5.60;;;;;;;12.67;100.00;90335.16;5089020;28;20040;-61
2023/10/20 06:43:01;;;;;;;9.27;6.40;;;;;;;12.63;100.00;90331.97;5071253;28;20047;-63
2023/10/20 06:45:27;;;;;;;10.63;6.17;;;;;;;12.72;100.00;90339.88;5070449;28;20078;-62
2023/10/20 06:47:54;;;;;;;8.52;5.90;;;;;;;12.69;100.00;90331.91;5089110;28;20552;-62
2023/10/20 06:50:22;;;;;;;9.60;6.28;;;;;;;12.75;100.00;90341.56;5087679;28;20536;-61
2023/10/20 06:52:49;;;;;;;10.25;6.68;;;;;;;12.76;100.00;90336.84;5089119;28;20481;-63
2023/10/20 06:55:15;;;;;;;11.05;6.78;;;;;;;12.74;100.00;90336.63;5075236;28;20416;-63
2023/10/20 06:58:02;;;;;;;10.80;7.00;;;;;;;12.72;100.00;90350.88;5088063;28;20286;-63
2023/10/20 07:00:29;;;;;;;11.98;6.95;;;;;;;12.78;100.00;90346.06;5088050;28;20048;-64
2023/10/20 07:02:56;;;;;;;10.93;7.45;;;;;;;12.85;100.00;90350.22;5088519;28;20419;-63
2023/10/20 07:05:23;;;;;;;10.52;6.80;;;;;;;12.84;100.00;90375.50;5087941;28;20048;-63
2023/10/20 07:07:51;;;;;;;10.85;6.85;;;;;;;12.86;100.00;90362.75;5088638;28;20040;-63
2023/10/20 07:10:21;;;;;;;9.70;6.90;;;;;;;12.98;100.00;90352.34;5088133;28;20442;-62
2023/10/20 07:12:48;;;;;;;10.63;6.82;;;;;;;12.93;100.00;90367.66;5088674;28;20036;-64
2023/10/20 07:15:16;;;;;;;9.63;7.13;;;;;;;13.03;100.00;90364.56;5070662;28;20381;-63
2023/10/20 07:17:42;;;;;;;11.93;7.78;;;;;;;12.97;100.00;90373.59;5075666;28;20726;-64
2023/10/20 07:20:10;;;;;;;11.23;7.57;;;;;;;12.92;100.00;90376.44;5077030;28;20112;-63
2023/10/20 07:22:36;;;;;;;12.10;7.50;;;;;;;13.12;100.00;90380.69;5078487;28;20040;-63
2023/10/20 07:25:03;;;;;;;11.45;7.07;;;;;;;13.34;100.00;90379.72;5073607;28;20048;-63
2023/10/20 07:27:31;;;;;;;10.55;7.20;;;;;;;13.30;100.00;90393.81;5076023;28;20058;-63
2023/10/20 07:29:57;;;;;;;11.55;7.60;;;;;;;13.35;100.00;90395.72;5082252;28;20070;-63
2023/10/20 07:32:25;;;;;;;13.45;7.85;;;;;;;13.87;100.00;90406.84;5087846;28;20048;-63
2023/10/20 07:34:52;;;;;;;12.60;7.53;;;;;;;15.18;100.00;90402.22;5088247;28;20042;-63
2023/10/20 07:37:18;;;;;;;12.45;7.90;;;;;;;15.02;100.00;90408.81;5085719;28;20044;-62
2023/10/20 07:39:46;;;;;;;14.38;8.23;;;;;;;14.60;100.00;90402.25;5066759;28;20496;-63
2023/10/20 07:42:16;;;;;;;12.40;7.75;;;;;;;14.24;100.00;90413.59;5079744;28;20420;-63
2023/10/20 07:44:43;;;;;;;10.98;7.85;;;;;;;14.04;100.00;90426.63;5057197;28;20489;-63
2023/10/20 07:47:11;;;;;;;12.80;8.10;;;;;;;13.88;100.00;90430.38;5067782;28;20477;-63
2023/10/20 07:49:38;;;;;;;11.73;7.90;;;;;;;13.75;100.00;90442.81;5077724;28;20044;-64
2023/10/20 07:52:05;;;;;;;12.43;8.35;;;;;;;13.72;100.00;90463.16;5079360;28;20044;-63
2023/10/20 07:54:32;;;;;;;12.88;8.15;;;;;;;13.51;100.00;90490.44;5076220;28;20032;-64
2023/10/20 07:56:58;;;;;;;15.02;9.30;;;;;;;13.48;100.00;90521.78;5075826;28;20630;-64
2023/10/20 07:59:25;;;;;;;12.87;8.83;;;;;;;13.43;100.00;90541.88;5041756;28;20046;-63
2023/10/20 08:01:52;;;;;;;13.57;8.93;;;;;;;13.48;100.00;90565.09;5079311;28;20104;-63
2023/10/20 08:04:19;;;;;;;14.18;9.30;;;;;;;13.49;100.00;90594.91;5078193;28;20052;-62
2023/10/20 08:06:47;;;;;;;14.18;8.82;;;;;;;13.95;100.00;90617.97;5087462;28;20036;-63
2023/10/20 08:09:15;;;;;;;13.57;9.63;;;;;;;14.37;100.00;90637.81;5087485;28;20417;-63
2023/10/20 08:11:42;;;;;;;12.50;8.33;;;;;;;14.74;100.00;90616.31;5086932;28;20452;-64
2023/10/20 08:14:09;;;;;;;10.57;7.43;;;;;;;15.05;100.00;90614.09;5069533;28;20044;-64
2023/10/20 08:16:36;;;;;;;9.98;7.45;;;;;;;14.87;100.00;90605.34;5086349;28;20052;-63
2023/10/20 08:19:03;;;;;;;12.95;8.18;;;;;;;14.54;100.00;90617.53;5087220;28;20393;-63
2023/10/20 08:21:30;;;;;;;14.30;9.35;;;;;;;13.65;100.00;90598.00;5086994;28;20340;-64
2023/10/20 08:24:00;;;;;;;12.27;7.10;;;;;;;13.84;100.00;90598.06;5087452;28;20040;-63
2023/10/20 08:26:27;;;;;;;9.30;6.75;;;;;;;14.37;100.00;90601.94;5086624;28;20048;-63
2023/10/20 08:28:53;;;;;;;11.43;7.18;;;;;;;14.86;100.00;90622.41;5069575;28;20050;-63
2023/10/20 08:31:21;;;;;;;8.98;6.45;;;;;;;14.73;100.00;90651.44;5086585;28;20052;-62
2023/10/20 08:33:49;;;;;;;8.88;6.65;;;;;;;14.51;100.00;90657.97;5087228;28;20039;-65
2023/10/20 08:36:16;;;;;;;10.43;6.50;;;;;;;14.77;100.00;90651.16;5087035;28;20512;-64
2023/10/20 08:38:45;;;;;;;11.93;7.10;;;;;;;14.65;100.00;90650.56;5077789;28;20593;-63
2023/10/20 08:41:14;;;;;;;9.32;6.70;;;;;;;14.89;100.00;90646.97;5086757;28;20036;-63
2023/10/20 08:43:42;;;;;;;9.43;6.20;;;;;;;14.76;100.00;90641.38;5068646;28;20044;-63
2023/10/20 08:46:11;;;;;;;12.52;7.18;;;;;;;14.91;100.00;90640.91;5087161;28;20036;-63
2023/10/20 08:48:40;;;;;;;9.70;6.40;;;;;;;14.91;100.00;90641.66;5086480;28;20124;-63
2023/10/20 08:51:08;;;;;;;10.15;6.80;;;;;;;14.90;100.00;90673.28;5087113;28;20503;-64
2023/10/20 08:53:38;;;;;;;9.73;6.03;;;;;;;14.42;100.00;90680.38;5086431;28;20140;-63
2023/10/20 08:56:07;;;;;;;8.30;5.30;;;;;;;14.49;100.00;90662.53;5080451;28;20032;-64
2023/10/20 08:58:35;;;;;;;7.13;4.95;;;;;;;14.84;100.00;90652.56;5065729;28;20045;-64
2023/10/20 09:01:03;;;;;;;7.23;5.00;;;;;;;15.13;100.00;90637.06;5053878;28;20050;-63
2023/10/20 09:03:41;;;;;;;6.97;4.70;;;;;;;15.30;100.00;90618.25;5076502;28;20048;-64
2023/10/20 09:06:12;;;;;;;10.65;6.03;;;;;;;15.73;100.00;90614.53;5078644;28;20051;-64
2023/10/20 09:08:38;;;;;;;7.30;5.20;;;;;;;16.26;100.00;90621.38;5077634;28;20044;-63
2023/10/20 09:11:11;;;;;;;7.72;5.10;;;;;;;15.70;100.00;90639.72;5078660;28;20044;-64
2023/10/20 09:13:40;;;;;;;6.87;4.37;;;;;;;17.46;100.00;90657.91;5077571;28;20086;-64
2023/10/20 09:16:10;;;;;;;5.32;4.13;;;;;;;18.05;100.00;90654.00;5078679;28;20054;-63
2023/10/20 09:18:51;;;;;;;5.25;3.92;;;;;;;17.10;100.00;90666.00;5080567;28;20044;-65
2023/10/20 09:21:24;;;;;;;4.25;3.10;;;;;;;17.10;100.00;90677.88;5080924;28;20036;-61
2023/10/20 09:23:54;;;;;;;3.53;2.38;;;;;;;17.53;100.00;90684.97;5060634;28;20051;-62
2023/10/20 09:26:22;;;;;;;3.83;2.00;;;;;;;17.34;100.00;90701.00;5078174;28;20044;-62
2023/10/20 09:28:50;;;;;;;4.35;1.90;;;;;;;17.48;100.00;90694.13;5090049;28;20108;-63
2023/10/20 09:31:18;;;;;;;3.97;2.17;;;;;;;17.20;100.00;90716.94;5090200;28;20112;-63
2023/10/20 09:33:45;;;;;;;4.65;1.60;;;;;;;17.40;100.00;90709.94;5077498;28;20655;-63
2023/10/20 09:36:13;;;;;;;4.00;2.20;;;;;;;17.60;100.00;90711.28;5085380;28;20058;-63
2023/10/20 09:38:44;;;;;;;3.70;2.30;;;;;;;17.55;100.00;90715.66;5087601;28;20052;-63
2023/10/20 09:41:12;;;;;;;2.47;1.15;;;;;;;16.92;100.00;90726.59;5090174;28;20036;-63
2023/10/20 09:43:45;;;;;;;2.15;1.08;;;;;;;16.72;100.00;90733.50;5089865;28;20510;-62
2023/10/20 09:46:36;;;;;;;2.53;1.10;;;;;;;16.32;100.00;90741.03;5090476;28;20036;-62
2023/10/20 09:49:14;;;;;;;2.40;1.10;;;;;;;16.81;100.00;90742.63;5075583;28;20700;-63
2023/10/20 09:51:45;;;;;;;2.10;0.90;;;;;;;16.65;100.00;90750.00;5069870;28;20037;-63
2023/10/20 09:54:14;;;;;;;1.75;0.82;;;;;;;16.71;100.00;90742.31;5069911;28;20040;-63
2023/10/20 09:56:44;;;;;;;1.80;0.90;;;;;;;16.63;100.00;90760.84;5078101;28;20047;-62
2023/10/20 09:59:23;;;;;;;1.70;0.80;;;;;;;16.51;100.00;90746.47;5085790;28;20054;-62
2023/10/20 10:01:57;;;;;;;2.25;1.00;;;;;;;16.18;100.00;90756.84;5073599;28;21771;-62
2023/10/20 10:04:30;;;;;;;2.43;0.73;;;;;;;15.97;100.00;90762.22;5079489;28;20040;-62
2023/10/20 10:07:03;;;;;;;1.80;0.90;;;;;;;15.98;100.00;90788.59;5078528;28;20482;-62
2023/10/20 10:09:38;;;;;;;3.17;0.90;;;;;;;15.91;100.00;90778.88;5077429;28;20040;-62
2023/10/20 10:12:16;;;;;;;3.00;0.90;;;;;;;15.88;100.00;90779.94;5076739;28;20460;-63
2023/10/20 10:15:06;;;;;;;2.08;0.80;;;;;;;15.93;100.00;90787.41;5076909;28;20443;-63
2023/10/20 10:17:47;;;;;;;1.60;0.77;;;;;;;15.99;100.00;90809.44;5080048;28;20044;-62
2023/10/20 10:20:25;;;;;;;1.85;0.90;;;;;;;16.03;100.00;90818.19;5077008;28;20052;-63
2023/10/20 10:23:04;;;;;;;1.95;0.95;;;;;;;16.16;100.00;90812.69;5076920;28;20429;-63
2023/10/20 10:25:35;;;;;;;2.08;0.80;;;;;;;16.12;100.00;90826.09;5079722;28;20446;-63
2023/10/20 10:28:10;;;;;;;2.63;0.70;;;;;;;15.93;100.00;90828.88;5081202;28;20494;-63
2023/10/20 10:30:37;;;;;;;1.60;0.80;;;;;;;15.82;100.00;90834.59;5072459;28;20045;-63
2023/10/20 10:33:09;;;;;;;1.52;0.80;;;;;;;15.65;100.00;90839.56;5089608;28;20036;-63
2023/10/20 10:35:38;;;;;;;1.65;0.77;;;;;;;15.64;100.00;90843.63;5088558;28;20477;-63
2023/10/20 10:38:17;;;;;;;2.47;0.55;;;;;;;15.65;100.00;90850.63;5089344;28;20044;-63
2023/10/20 10:40:45;;;;;;;2.90;0.70;;;;;;;15.73;100.00;90843.25;5088722;28;20674;-63
2023/10/20 10:43:18;;;;;;;1.67;0.70;;;;;;;15.86;100.00;90848.84;5089815;28;20032;-63
2023/10/20 10:45:50;;;;;;;1.95;0.98;;;;;;;16.13;100.00;90843.44;5076198;28;20860;-63
2023/10/20 10:48:18;;;;;;;1.85;0.90;;;;;;;16.72;100.00;90846.25;5077424;28;20109;-63
2023/10/20 10:50:46;;;;;;;1.60;0.70;;;;;;;16.24;100.00;90850.81;5080014;28;21595;-63
2023/10/20 10:53:15;;;;;;;1.67;0.90;;;;;;;16.27;100.00;90844.22;5089364;28;20046;-64
2023/10/20 10:55:43;;;;;;;1.50;0.70;;;;;;;16.09;100.00;90846.50;5086244;28;20073;-64
2023/10/20 10:58:14;;;;;;;3.72;1.55;;;;;;;16.13;100.00;90852.47;5088806;28;20484;-63
2023/10/20 11:00:45;;;;;;;2.45;1.10;;;;;;;16.35;100.00;90854.16;5088358;28;20200;-64
2023/10/20 11:03:13;;;;;;;1.83;0.60;;;;;;;16.55;100.00;90868.69;5071218;28;20050;-64
2023/10/20 11:05:42;;;;;;;2.08;0.73;;;;;;;16.42;100.00;90868.66;5088504;28;20040;-64
2023/10/20 11:08:12;;;;;;;1.60;0.50;;;;;;;15.76;100.00;90876.13;5071369;28;20040;-65
2023/10/20 11:10:45;;;;;;;1.52;0.70;;;;;;;15.40;100.00;90872.06;5071278;28;20730;-64
2023/10/20 11:13:15;;;;;;;1.73;0.65;;;;;;;15.35;100.00;90874.38;5080025;28;20044;-64
2023/10/20 11:15:42;;;;;;;1.67;0.75;;;;;;;15.58;100.00;90883.13;5076730;28;20121;-64
2023/10/20 11:18:10;;;;;;;1.67;0.65;;;;;;;15.91;100.00;90877.69;5076619;28;20454;-64
2023/10/20 11:20:41;;;;;;;1.47;0.50;;;;;;;15.74;100.00;90880.69;5087952;28;20055;-64
2023/10/20 11:23:09;;;;;;;1.50;0.57;;;;;;;15.94;100.00;90880.16;5088591;28;20055;-64
2023/10/20 11:25:36;;;;;;;1.50;0.60;;;;;;;16.13;100.00;90888.44;5088338;28;20108;-64
2023/10/20 11:28:04;;;;;;;3.15;0.60;;;;;;;15.67;100.00;90884.75;5088436;28;20036;-64
2023/10/20 11:30:34;;;;;;;1.60;0.80;;;;;;;15.56;100.00;90891.19;5087573;28;20042;-64
2023/10/20 11:33:02;;;;;;;1.80;0.80;;;;;;;15.35;100.00;90888.19;5088579;28;20330;-63
2023/10/20 11:35:30;;;;;;;2.63;0.90;;;;;;;15.22;100.00;90893.59;5068972;28;20044;-62
2023/10/20 11:37:58;;;;;;;1.60;0.70;;;;;;;15.60;100.00;90907.47;5088816;28;20052;-64
2023/10/20 11:40:28;;;;;;;2.47;0.60;;;;;;;15.45;100.00;90915.44;5087470;28;20066;-63
2023/10/20 11:42:56;;;;;;;2.38;0.60;;;;;;;15.06;100.00;90930.44;5088615;28;20515;-64
2023/10/20 11:45:23;;;;;;;1.77;0.60;;;;;;;14.73;100.00;90951.56;5087578;28;20089;-63
2023/10/20 11:47:51;;;;;;;1.60;0.70;;;;;;;14.70;100.00;90956.09;5088433;28;20047;-63
2023/10/20 11:50:23;;;;;;;3.33;0.98;;;;;;;14.62;100.00;90951.66;5087696;28;20055;-62
2023/10/20 11:52:50;;;;;;;3.17;0.70;;;;;;;14.81;100.00;90946.22;5088231;28;20036;-64
2023/10/20 11:55:18;;;;;;;2.58;0.90;;;;;;;14.93;100.00;90953.91;5086263;28;20104;-63
2023/10/20 11:57:45;;;;;;;1.60;0.50;;;;;;;15.04;100.00;90942.00;5079485;28;20841;-64
2023/10/20 12:00:13;;;;;;;2.40;0.70;;;;;;;14.89;100.00;90938.84;5088401;28;20043;-64
2023/10/20 12:02:41;;;;;;;2.05;0.70;;;;;;;14.84;100.00;90948.69;5087822;28;20109;-63
2023/10/20 12:05:09;;;;;;;2.10;0.73;;;;;;;15.06;100.00;90944.97;5087990;28;20067;-65
2023/10/20 12:07:37;;;;;;;3.08;0.80;;;;;;;14.91;100.00;90947.38;5087521;28;20131;-63
2023/10/20 12:10:05;;;;;;;2.37;0.70;;;;;;;15.03;100.00;90956.31;5088048;28;20088;-64
2023/10/20 12:12:33;;;;;;;3.55;0.80;;;;;;;15.25;100.00;90958.09;5069727;28;20048;-64